createdAt,value
2022-08-18T00:01:17.589Z,5.30
2022-08-18T00:03:56.765Z,5.57
2022-08-18T00:06:29.292Z,5.40
2022-08-18T00:09:04.732Z,5.90
2022-08-18T00:11:41.097Z,6.30
2022-08-18T00:14:22.630Z,5.83
2022-08-18T00:16:53.972Z,5.93
2022-08-18T00:19:45.635Z,6.30
2022-08-18T00:22:15.007Z,6.20
2022-08-18T00:24:47.517Z,6.40
2022-08-18T00:27:19.621Z,4.83
2022-08-18T00:29:49.014Z,5.97
2022-08-18T00:32:18.866Z,6.50
2022-08-18T00:34:48.126Z,5.70
2022-08-18T00:37:14.984Z,6.07
2022-08-18T00:39:47.662Z,6.43
2022-08-18T00:42:33.471Z,5.50
2022-08-18T00:45:05.305Z,6.00
2022-08-18T00:47:41.601Z,6.07
2022-08-18T00:50:47.527Z,5.57
2022-08-18T00:53:36.888Z,5.60
2022-08-18T00:56:08.733Z,6.77
2022-08-18T00:58:43.543Z,5.80
2022-08-18T01:01:12.420Z,5.93
2022-08-18T01:03:42.075Z,6.03
2022-08-18T01:06:28.423Z,5.87
2022-08-18T01:08:56.019Z,5.47
2022-08-18T01:11:23.304Z,6.20
2022-08-18T01:13:50.469Z,5.47
2022-08-18T01:16:36.536Z,5.57
2022-08-18T01:19:25.247Z,6.30
2022-08-18T01:21:59.799Z,5.50
2022-08-18T01:24:59.859Z,6.20
2022-08-18T01:27:34.107Z,6.50
2022-08-18T01:30:10.289Z,5.60
2022-08-18T01:32:38.427Z,6.40
2022-08-18T01:35:08.921Z,6.57
2022-08-18T01:37:36.649Z,6.77
2022-08-18T01:41:23.171Z,5.70
2022-08-18T01:42:57.037Z,6.03
2022-08-18T01:45:24.427Z,6.03
2022-08-18T01:47:51.380Z,6.17
2022-08-18T01:50:21.443Z,5.17
2022-08-18T01:52:48.429Z,6.83
2022-08-18T01:55:15.316Z,5.70
2022-08-18T01:57:45.663Z,5.90
2022-08-18T02:00:17.534Z,6.30
2022-08-18T02:02:44.894Z,6.73
2022-08-18T02:05:29.838Z,5.50
2022-08-18T02:07:58.367Z,6.50
2022-08-18T02:10:27.623Z,5.97
2022-08-18T02:12:55.040Z,6.70
2022-08-18T02:15:21.940Z,6.10
2022-08-18T02:17:49.387Z,6.63
2022-08-18T02:20:18.702Z,6.80
2022-08-18T02:22:46.980Z,6.57
2022-08-18T02:25:15.064Z,6.37
2022-08-18T02:27:42.422Z,7.00
2022-08-18T02:30:12.516Z,6.57
2022-08-18T02:32:41.618Z,6.43
2022-08-18T02:35:11.877Z,6.63
2022-08-18T02:37:42.151Z,6.27
2022-08-18T02:40:11.350Z,6.40
2022-08-18T02:42:45.733Z,6.37
2022-08-18T02:45:14.291Z,6.73
2022-08-18T02:47:43.013Z,6.93
2022-08-18T02:50:14.123Z,6.00
2022-08-18T02:52:41.415Z,6.43
2022-08-18T02:55:09.953Z,7.00
2022-08-18T02:57:41.993Z,6.90
2022-08-18T03:00:12.895Z,6.07
2022-08-18T03:02:40.069Z,6.57
2022-08-18T03:05:09.347Z,6.67
2022-08-18T03:07:41.689Z,6.77
2022-08-18T03:10:33.260Z,6.80
2022-08-18T03:12:59.300Z,7.27
2022-08-18T03:15:26.602Z,7.30
2022-08-18T03:17:59.860Z,5.90
2022-08-18T03:20:30.155Z,7.23
2022-08-18T03:22:58.467Z,6.83
2022-08-18T03:25:25.244Z,6.70
2022-08-18T03:27:52.680Z,6.50
2022-08-18T03:30:19.705Z,6.60
2022-08-18T03:32:47.465Z,7.23
2022-08-18T03:35:14.736Z,6.83
2022-08-18T03:37:44.789Z,7.20
2022-08-18T03:40:11.978Z,7.07
2022-08-18T03:42:41.034Z,7.30
2022-08-18T03:45:17.275Z,6.80
2022-08-18T03:47:46.046Z,6.20
2022-08-18T03:50:14.130Z,6.50
2022-08-18T03:52:48.604Z,5.80
2022-08-18T03:55:16.362Z,6.93
2022-08-18T03:57:44.106Z,7.00
2022-08-18T04:00:12.451Z,6.50
2022-08-18T04:02:39.783Z,7.33
2022-08-18T04:05:07.437Z,7.10
2022-08-18T04:07:34.578Z,7.67
2022-08-18T04:10:07.367Z,7.33
2022-08-18T04:12:48.247Z,7.37
2022-08-18T04:15:15.541Z,7.37
2022-08-18T04:18:03.321Z,7.57
2022-08-18T04:20:29.585Z,6.33
2022-08-18T04:22:56.508Z,6.37
2022-08-18T04:25:23.246Z,7.70
2022-08-18T04:27:50.202Z,7.47
2022-08-18T04:30:17.009Z,8.17
2022-08-18T04:32:43.753Z,7.43
2022-08-18T04:35:14.092Z,6.43
2022-08-18T04:37:41.899Z,8.23
2022-08-18T04:40:11.354Z,7.60
2022-08-18T04:42:43.317Z,7.17
2022-08-18T04:45:10.737Z,7.27
2022-08-18T04:47:41.599Z,8.30
2022-08-18T04:50:09.543Z,8.33
2022-08-18T04:52:54.761Z,7.00
2022-08-18T04:55:22.137Z,7.33
2022-08-18T04:57:51.250Z,6.90
2022-08-18T05:00:20.832Z,6.97
2022-08-18T05:02:50.134Z,7.03
2022-08-18T05:05:16.979Z,7.50
2022-08-18T05:07:46.512Z,6.90
2022-08-18T05:10:18.068Z,6.77
2022-08-18T05:12:48.047Z,6.97
2022-08-18T05:15:14.879Z,6.87
2022-08-18T05:17:41.783Z,7.47
2022-08-18T05:20:09.352Z,7.30
2022-08-18T05:22:41.443Z,6.63
2022-08-18T05:25:10.572Z,6.90
2022-08-18T05:27:40.184Z,6.70
2022-08-18T05:30:08.184Z,7.03
2022-08-18T05:32:50.013Z,8.60
2022-08-18T05:35:25.030Z,7.23
2022-08-18T05:38:11.988Z,7.10
2022-08-18T05:40:41.403Z,6.77
2022-08-18T05:43:10.445Z,8.53
2022-08-18T05:45:39.511Z,7.10
2022-08-18T05:48:06.385Z,7.13
2022-08-18T05:50:36.511Z,7.63
2022-08-18T05:53:43.606Z,7.30
2022-08-18T05:56:30.186Z,6.43
2022-08-18T05:58:59.643Z,7.50
2022-08-18T06:01:33.248Z,6.97
2022-08-18T06:04:14.646Z,7.23
2022-08-18T06:06:47.458Z,8.50
2022-08-18T06:09:17.517Z,7.37
2022-08-18T06:11:44.451Z,6.50
2022-08-18T06:14:13.394Z,6.80
2022-08-18T06:17:08.452Z,7.10
2022-08-18T06:20:12.002Z,6.50
2022-08-18T06:23:02.657Z,7.37
2022-08-18T06:25:52.191Z,7.60
2022-08-18T06:28:19.184Z,7.90
2022-08-18T06:31:10.192Z,7.90
2022-08-18T06:33:40.181Z,7.10
2022-08-18T06:36:18.767Z,7.03
2022-08-18T06:39:02.932Z,7.70
2022-08-18T06:41:43.901Z,7.00
2022-08-18T06:44:20.369Z,7.10
2022-08-18T06:47:04.261Z,7.73
2022-08-18T06:50:00.021Z,7.80
2022-08-18T06:52:31.457Z,7.33
2022-08-18T06:55:11.594Z,7.00
2022-08-18T06:57:52.841Z,6.90
2022-08-18T07:00:22.291Z,6.27
2022-08-18T07:02:49.140Z,7.20
2022-08-18T07:05:29.672Z,7.43
2022-08-18T07:08:22.604Z,6.93
2022-08-18T07:10:52.614Z,8.47
2022-08-18T07:13:30.090Z,7.40
2022-08-18T07:16:47.377Z,7.57
2022-08-18T07:19:20.494Z,7.47
2022-08-18T07:22:17.187Z,7.20
2022-08-18T07:25:01.738Z,7.20
2022-08-18T07:27:49.271Z,7.10
2022-08-18T07:30:21.617Z,6.50
2022-08-18T07:32:54.208Z,7.30
2022-08-18T07:35:31.002Z,6.40
2022-08-18T07:38:24.866Z,7.17
2022-08-18T07:41:01.189Z,7.13
2022-08-18T07:43:38.187Z,7.30
2022-08-18T07:46:17.790Z,7.10
2022-08-18T07:48:44.695Z,6.43
2022-08-18T07:51:19.263Z,6.67
2022-08-18T07:54:48.447Z,7.47
2022-08-18T07:57:20.127Z,6.63
2022-08-18T08:00:18.664Z,7.20
2022-08-18T08:03:15.481Z,7.53
2022-08-18T08:06:11.753Z,7.20
2022-08-18T08:09:09.343Z,7.90
2022-08-18T08:11:36.079Z,7.17
2022-08-18T08:14:29.053Z,6.60
2022-08-18T08:17:17.798Z,8.00
2022-08-18T08:20:03.780Z,7.43
2022-08-18T08:22:43.989Z,6.73
2022-08-18T08:25:51.413Z,7.83
2022-08-18T08:28:33.427Z,7.00
2022-08-18T08:31:25.765Z,7.20
2022-08-18T08:34:02.830Z,6.97
2022-08-18T08:36:38.536Z,7.47
2022-08-18T08:39:12.482Z,7.00
2022-08-18T08:41:52.516Z,7.63
2022-08-18T08:44:59.206Z,7.67
2022-08-18T08:48:06.621Z,8.33
2022-08-18T08:50:47.595Z,6.47
2022-08-18T08:53:33.517Z,6.67
2022-08-18T08:56:16.287Z,7.10
2022-08-18T08:58:45.959Z,6.63
2022-08-18T09:01:42.632Z,7.73
2022-08-18T09:05:07.597Z,7.40
2022-08-18T09:08:09.811Z,7.67
2022-08-18T09:11:18.978Z,6.97
2022-08-18T09:14:11.524Z,6.80
2022-08-18T09:16:44.227Z,7.30
2022-08-18T09:19:29.478Z,6.83
2022-08-18T09:22:07.142Z,6.70
2022-08-18T09:24:52.321Z,7.00
2022-08-18T09:28:08.804Z,6.80
2022-08-18T09:30:43.494Z,7.30
2022-08-18T09:33:18.860Z,6.90
2022-08-18T09:35:59.411Z,6.30
2022-08-18T09:38:49.275Z,5.90
2022-08-18T09:41:33.153Z,6.43
2022-08-18T09:44:17.772Z,7.30
2022-08-18T09:46:50.640Z,7.30
2022-08-18T09:49:26.435Z,8.30
2022-08-18T09:51:58.929Z,6.57
2022-08-18T09:54:31.726Z,7.07
2022-08-18T09:57:19.587Z,7.80
2022-08-18T09:59:50.436Z,7.37
2022-08-18T10:02:29.198Z,6.47
2022-08-18T10:05:34.280Z,8.17
2022-08-18T10:08:06.155Z,6.40
2022-08-18T10:11:01.300Z,6.07
2022-08-18T10:14:18.213Z,7.00
2022-08-18T10:20:28.667Z,6.10
2022-08-18T10:22:57.475Z,6.50
2022-08-18T10:25:48.695Z,5.90
2022-08-18T10:28:54.103Z,7.83
2022-08-18T10:31:24.085Z,5.80
2022-08-18T10:34:18.983Z,5.70
2022-08-18T10:36:58.844Z,6.20
2022-08-18T10:39:50.107Z,6.73
2022-08-18T10:42:40.846Z,6.17
2022-08-18T10:45:27.114Z,6.43
2022-08-18T10:48:24.472Z,5.97
2022-08-18T10:50:59.630Z,5.97
2022-08-18T10:53:45.809Z,6.20
2022-08-18T11:03:21.189Z,5.47
2022-08-18T11:05:34.553Z,6.53
2022-08-18T11:08:15.680Z,5.97
2022-08-18T11:11:27.456Z,6.70
2022-08-18T11:13:43.259Z,6.43
2022-08-18T11:16:34.615Z,5.50
2022-08-18T11:19:18.744Z,5.20
2022-08-18T11:21:51.413Z,4.70
2022-08-18T11:24:26.787Z,5.40
2022-08-18T11:27:04.222Z,4.97
2022-08-18T11:29:41.990Z,4.93
2022-08-18T11:35:22.076Z,5.07
2022-08-18T11:38:01.201Z,5.50
2022-08-18T11:43:41.749Z,4.57
2022-08-18T11:49:39.621Z,4.70
2022-08-18T11:52:26.084Z,4.70
2022-08-18T12:00:48.759Z,4.20
2022-08-18T12:03:19.123Z,4.37
2022-08-18T12:05:56.652Z,5.00
2022-08-18T12:11:27.976Z,4.07
2022-08-18T12:14:31.360Z,3.60
2022-08-18T12:17:02.643Z,3.27
2022-08-18T12:19:31.178Z,4.10
2022-08-18T12:22:12.794Z,3.00
2022-08-18T12:24:42.005Z,3.40
2022-08-18T12:29:59.080Z,2.93
2022-08-18T12:32:56.368Z,4.07
2022-08-18T12:35:22.061Z,3.50
2022-08-18T12:38:13.468Z,3.65
2022-08-18T12:40:40.010Z,3.30
2022-08-18T12:43:09.214Z,3.80
2022-08-18T12:45:38.121Z,3.55
2022-08-18T12:48:06.863Z,3.20
2022-08-18T12:53:29.736Z,2.70
2022-08-18T12:56:30.442Z,2.30
2022-08-18T12:59:04.323Z,2.70
2022-08-18T13:01:33.896Z,2.83
2022-08-18T13:04:12.708Z,3.00
2022-08-18T13:06:58.918Z,2.00
2022-08-18T13:09:34.709Z,2.55
2022-08-18T13:12:16.066Z,2.40
2022-08-18T13:14:45.869Z,1.85
2022-08-18T13:17:32.669Z,2.55
2022-08-18T13:20:21.474Z,2.53
2022-08-18T13:22:50.196Z,2.42
2022-08-18T13:25:28.711Z,2.75
2022-08-18T13:28:02.862Z,2.80
2022-08-18T13:30:32.394Z,2.38
2022-08-18T13:33:33.904Z,2.83
2022-08-18T13:35:54.557Z,3.78
2022-08-18T13:38:27.090Z,3.53
2022-08-18T13:40:59.314Z,4.00
2022-08-18T13:43:36.006Z,3.75
2022-08-18T13:46:07.135Z,4.45
2022-08-18T13:48:36.313Z,3.80
2022-08-18T13:51:04.128Z,4.05
2022-08-18T13:53:32.369Z,3.20
2022-08-18T13:55:59.472Z,3.45
2022-08-18T13:58:28.145Z,4.35
2022-08-18T14:01:42.018Z,3.80
2022-08-18T14:03:58.628Z,4.75
2022-08-18T14:08:58.304Z,4.85
2022-08-18T14:11:32.911Z,4.57
2022-08-18T14:14:01.886Z,4.03
2022-08-18T14:16:31.278Z,4.93
2022-08-18T14:19:19.033Z,4.80
2022-08-18T14:22:11.735Z,4.32
2022-08-18T14:25:01.776Z,5.00
2022-08-18T14:27:42.992Z,4.20
2022-08-18T14:30:23.178Z,3.95
2022-08-18T14:32:50.180Z,4.33
2022-08-18T14:35:31.779Z,4.18
2022-08-18T14:38:04.012Z,5.32
2022-08-18T14:40:33.411Z,4.07
2022-08-18T14:43:06.494Z,4.63
2022-08-18T14:45:35.625Z,3.88
2022-08-18T14:48:11.196Z,4.07
2022-08-18T14:50:40.175Z,3.55
2022-08-18T14:53:17.266Z,3.80
2022-08-18T14:55:52.050Z,4.40
2022-08-18T14:58:32.067Z,4.05
2022-08-18T15:01:08.508Z,4.27
2022-08-18T15:03:38.391Z,3.97
2022-08-18T15:06:07.918Z,3.80
2022-08-18T15:08:38.526Z,3.97
2022-08-18T15:11:11.648Z,3.73
2022-08-18T15:13:41.879Z,4.17
2022-08-18T15:16:13.361Z,4.20
2022-08-18T15:18:46.406Z,3.80
2022-08-18T15:21:39.020Z,4.27
2022-08-18T15:24:26.763Z,4.53
2022-08-18T15:26:58.145Z,3.80
2022-08-18T15:29:33.352Z,4.53
2022-08-18T15:32:06.011Z,4.30
2022-08-18T15:34:47.391Z,5.10
2022-08-18T15:37:20.409Z,4.73
2022-08-18T15:40:01.142Z,4.30
2022-08-18T15:42:33.127Z,4.23
2022-08-18T15:45:11.607Z,4.40
2022-08-18T15:47:42.415Z,4.90
2022-08-18T15:50:25.560Z,4.50
2022-08-18T15:52:56.101Z,4.40
2022-08-18T15:55:29.492Z,4.17
2022-08-18T15:58:10.813Z,4.37
2022-08-18T16:00:42.401Z,4.60
2022-08-18T16:03:17.384Z,4.17
2022-08-18T16:05:54.035Z,4.30
2022-08-18T16:08:22.996Z,4.50
2022-08-18T16:10:49.880Z,4.23
2022-08-18T16:13:17.040Z,4.43
2022-08-18T16:15:48.073Z,4.77
2022-08-18T16:18:17.337Z,4.10
2022-08-18T16:20:47.287Z,4.43
2022-08-18T16:23:14.282Z,4.40
2022-08-18T16:25:43.086Z,4.60
2022-08-18T16:28:13.361Z,4.90
2022-08-18T16:30:40.632Z,4.70
2022-08-18T16:33:08.009Z,4.20
2022-08-18T16:35:37.250Z,4.57
2022-08-18T16:38:12.069Z,4.43
2022-08-18T16:40:40.310Z,4.87
2022-08-18T16:43:07.591Z,4.40
2022-08-18T16:45:37.459Z,4.77
2022-08-18T16:48:06.446Z,5.70
2022-08-18T16:50:33.955Z,6.10
2022-08-18T16:53:01.316Z,6.23
2022-08-18T16:55:28.300Z,6.93
2022-08-18T16:58:15.643Z,6.40
2022-08-18T17:01:02.157Z,6.87
2022-08-18T17:03:47.574Z,6.33
2022-08-18T17:06:17.794Z,7.20
2022-08-18T17:08:45.494Z,6.70
2022-08-18T17:11:19.785Z,7.67
2022-08-18T17:13:48.787Z,6.00
2022-08-18T17:16:17.083Z,6.77
2022-08-18T17:18:44.599Z,7.20
2022-08-18T17:21:14.944Z,7.47
2022-08-18T17:23:45.911Z,6.97
2022-08-18T17:26:38.391Z,5.53
2022-08-18T17:29:38.112Z,6.47
2022-08-18T17:32:12.116Z,6.03
2022-08-18T17:34:45.396Z,6.67
2022-08-18T17:37:17.759Z,6.13
2022-08-18T17:40:13.514Z,5.80
2022-08-18T17:42:42.493Z,6.90
2022-08-18T17:45:21.711Z,6.20
2022-08-18T17:48:05.850Z,5.90
2022-08-18T17:51:03.179Z,6.50
2022-08-18T17:53:36.268Z,6.70
2022-08-18T17:56:17.247Z,6.27
2022-08-18T17:58:56.487Z,6.60
2022-08-18T18:01:26.246Z,7.37
2022-08-18T18:03:56.194Z,6.27
2022-08-18T18:06:35.150Z,7.50
2022-08-18T18:09:29.040Z,6.80
2022-08-18T18:11:55.857Z,6.60
2022-08-18T18:14:38.211Z,6.10
2022-08-18T18:17:19.907Z,5.80
2022-08-18T18:19:52.296Z,7.23
2022-08-18T18:22:20.341Z,7.13
2022-08-18T18:25:07.806Z,8.23
2022-08-18T18:27:47.349Z,7.23
2022-08-18T18:30:19.231Z,6.87
2022-08-18T18:33:22.952Z,6.30
2022-08-18T18:35:54.814Z,7.77
2022-08-18T18:38:38.107Z,6.50
2022-08-18T18:41:13.616Z,6.17
2022-08-18T18:43:48.499Z,6.87
2022-08-18T18:46:18.533Z,6.33
2022-08-18T18:48:52.174Z,6.13
2022-08-18T18:51:33.927Z,5.70
2022-08-18T18:54:34.886Z,6.27
2022-08-18T18:57:10.949Z,6.93
2022-08-18T19:00:10.933Z,6.30
2022-08-18T19:02:49.770Z,5.90
2022-08-18T19:05:29.534Z,6.20
2022-08-18T19:08:10.835Z,5.97
2022-08-18T19:10:53.725Z,5.97
2022-08-18T19:13:32.894Z,6.87
2022-08-18T19:16:23.557Z,6.10
2022-08-18T19:19:38.143Z,6.33
2022-08-18T19:22:06.835Z,6.10
2022-08-18T19:24:45.300Z,5.87
2022-08-18T19:27:23.772Z,5.60
2022-08-18T19:29:56.047Z,5.17
2022-08-18T19:32:33.614Z,5.30
2022-08-18T19:35:04.532Z,5.47
2022-08-18T19:38:09.595Z,5.60
2022-08-18T19:41:00.249Z,5.23
2022-08-18T19:43:42.518Z,5.17
2022-08-18T19:46:41.013Z,5.20
2022-08-18T19:49:26.321Z,5.33
2022-08-18T19:51:59.008Z,5.87
2022-08-18T19:55:01.106Z,5.10
2022-08-18T19:57:58.932Z,5.97
2022-08-18T20:00:31.763Z,5.63
2022-08-18T20:03:52.540Z,6.80
2022-08-18T20:06:38.085Z,6.07
2022-08-18T20:09:23.107Z,5.80
2022-08-18T20:12:11.609Z,5.07
2022-08-18T20:14:41.680Z,6.60
2022-08-18T20:17:23.079Z,6.60
2022-08-18T20:19:52.812Z,5.50
2022-08-18T20:22:24.845Z,5.80
2022-08-18T20:25:11.818Z,5.03
2022-08-18T20:27:53.238Z,6.40
2022-08-18T20:30:20.292Z,5.83
2022-08-18T20:33:25.869Z,6.50
2022-08-18T20:36:18.355Z,7.13
2022-08-18T20:38:57.470Z,5.70
2022-08-18T20:41:27.656Z,6.30
2022-08-18T20:44:12.301Z,5.90
2022-08-18T20:46:52.400Z,6.20
2022-08-18T20:49:37.278Z,6.47
2022-08-18T20:52:37.817Z,5.67
2022-08-18T20:55:12.039Z,6.33
2022-08-18T20:57:40.268Z,6.73
2022-08-18T21:00:16.055Z,7.30
2022-08-18T21:02:57.697Z,6.70
2022-08-18T21:05:32.861Z,7.00
2022-08-18T21:08:31.049Z,6.53
2022-08-18T21:11:21.255Z,6.83
2022-08-18T21:14:04.159Z,6.30
2022-08-18T21:16:38.869Z,7.43
2022-08-18T21:19:23.544Z,6.97
2022-08-18T21:21:53.611Z,7.67
2022-08-18T21:24:28.882Z,7.73
2022-08-18T21:26:58.994Z,6.77
2022-08-18T21:29:27.041Z,6.93
2022-08-18T21:32:19.884Z,7.83
2022-08-18T21:34:47.269Z,7.23
2022-08-18T21:37:18.063Z,8.10
2022-08-18T21:39:53.750Z,7.90
2022-08-18T21:42:29.760Z,7.13
2022-08-18T21:45:00.658Z,6.97
2022-08-18T21:47:34.707Z,6.60
2022-08-18T21:50:18.912Z,6.90
2022-08-18T21:53:11.622Z,7.47
2022-08-18T21:55:42.439Z,7.27
2022-08-18T21:58:16.700Z,5.93
2022-08-18T22:01:23.297Z,6.67
2022-08-18T22:03:57.733Z,6.40
2022-08-18T22:06:52.845Z,7.20
2022-08-18T22:09:42.537Z,7.30
2022-08-18T22:12:52.367Z,6.67
2022-08-18T22:15:28.808Z,6.90
2022-08-18T22:18:26.224Z,6.90
2022-08-18T22:20:56.839Z,6.93
2022-08-18T22:24:05.586Z,7.20
2022-08-18T22:26:36.739Z,7.87
2022-08-18T22:29:08.567Z,7.70
2022-08-18T22:31:41.671Z,6.70
2022-08-18T22:34:17.734Z,8.47
2022-08-18T22:37:00.998Z,7.33
2022-08-18T22:39:33.063Z,7.20
2022-08-18T22:42:00.267Z,5.90
2022-08-18T22:44:29.675Z,7.17
2022-08-18T22:46:59.223Z,6.53
2022-08-18T22:49:29.858Z,6.37
2022-08-18T22:51:59.527Z,8.00
2022-08-18T22:54:26.708Z,7.10
2022-08-18T22:56:57.770Z,7.40
2022-08-18T22:59:26.783Z,7.27
2022-08-18T23:01:58.043Z,8.17
2022-08-18T23:04:25.816Z,7.23
2022-08-18T23:06:56.126Z,7.53
2022-08-18T23:09:27.838Z,7.50
2022-08-18T23:11:59.718Z,7.53
2022-08-18T23:14:26.698Z,6.77
2022-08-18T23:16:56.282Z,7.57
2022-08-18T23:19:23.100Z,6.77
2022-08-18T23:21:52.252Z,6.50
2022-08-18T23:24:22.620Z,7.80
2022-08-18T23:26:49.905Z,7.30
2022-08-18T23:29:18.765Z,7.10
2022-08-18T23:31:46.340Z,6.97
2022-08-18T23:34:17.342Z,6.50
2022-08-18T23:36:46.551Z,7.53
2022-08-18T23:39:14.505Z,7.23
2022-08-18T23:41:41.399Z,7.30
2022-08-18T23:44:08.172Z,7.53
2022-08-18T23:46:35.951Z,7.90
2022-08-18T23:49:06.088Z,8.73
2022-08-18T23:51:44.747Z,6.93
2022-08-18T23:54:17.771Z,7.23
2022-08-18T23:56:46.097Z,6.60
2022-08-18T23:59:14.101Z,7.50
